Time;durP1;ratioP1;P1;durP2;ratioP2;P2;SDS_P1;SDS_P2;PMS_P1;PMS_P2;Temp;Humidity;BMP_temperature;BMP_pressure;BME280_temperature;BME280_humidity;BME280_pressure;Samples;Min_cycle;Max_cycle;Signal;HPM_P1;HPM_P2
2021/07/25 00:01:26;;;;;;;26.27;19.52;;;;;;;19.09;100.00;98680.81;5114936;28;20206;-75
2021/07/25 00:03:53;;;;;;;27.20;19.92;;;;;;;19.07;100.00;98684.72;5114722;28;20234;-74
2021/07/25 00:06:19;;;;;;;25.00;18.30;;;;;;;19.17;100.00;98685.41;5115023;28;20184;-74
2021/07/25 00:08:46;;;;;;;20.80;16.75;;;;;;;19.27;100.00;98686.16;5115227;28;20606;-74
2021/07/25 00:11:17;;;;;;;25.85;19.52;;;;;;;19.41;100.00;98692.81;5114840;28;20187;-74
2021/07/25 00:13:47;;;;;;;25.25;17.95;;;;;;;19.50;100.00;98685.50;5115097;28;20243;-72
2021/07/25 00:16:14;;;;;;;22.67;17.92;;;;;;;19.57;100.00;98687.38;5114949;28;20240;-74
2021/07/25 00:18:41;;;;;;;19.65;16.73;;;;;;;19.72;100.00;98689.50;5114776;28;20281;-74
2021/07/25 00:21:08;;;;;;;16.55;13.00;;;;;;;19.88;100.00;98691.38;5115169;28;20287;-75
2021/07/25 00:23:34;;;;;;;18.33;14.13;;;;;;;19.94;100.00;98696.13;5114467;28;20207;-75
2021/07/25 00:26:01;;;;;;;16.63;13.30;;;;;;;19.89;100.00;98704.00;5114759;28;20282;-74
2021/07/25 00:28:33;;;;;;;16.90;13.57;;;;;;;20.01;100.00;98699.88;5114972;28;20596;-75
2021/07/25 00:31:03;;;;;;;13.65;12.25;;;;;;;20.02;100.00;98704.34;5114385;28;20273;-73
2021/07/25 00:33:32;;;;;;;15.27;12.13;;;;;;;19.94;100.00;98701.59;5114707;28;20255;-74
2021/07/25 00:36:00;;;;;;;18.67;11.52;;;;;;;19.92;100.00;98698.19;5114462;28;20202;-73
2021/07/25 00:38:28;;;;;;;12.63;10.88;;;;;;;19.98;100.00;98694.78;5114727;28;20726;-74
2021/07/25 00:40:58;;;;;;;19.13;9.57;;;;;;;19.90;100.00;98692.91;5114524;28;20182;-74
2021/07/25 00:43:26;;;;;;;10.82;9.73;;;;;;;19.79;100.00;98690.50;5114123;28;20206;-73
2021/07/25 00:45:54;;;;;;;11.10;9.55;;;;;;;19.79;100.00;98696.81;5114180;28;20520;-75
2021/07/25 00:48:21;;;;;;;9.57;8.40;;;;;;;19.81;100.00;98695.78;5113779;28;20197;-74
2021/07/25 00:50:48;;;;;;;11.57;9.60;;;;;;;19.63;100.00;98696.78;5114170;28;20197;-73
2021/07/25 00:53:14;;;;;;;10.43;8.38;;;;;;;19.51;100.00;98698.13;5114015;28;20189;-74
2021/07/25 00:55:42;;;;;;;11.20;9.80;;;;;;;19.34;100.00;98700.81;5114151;28;20635;-73
2021/07/25 00:58:09;;;;;;;12.95;10.35;;;;;;;19.13;100.00;98695.84;5114146;28;20308;-74
2021/07/25 01:00:35;;;;;;;14.35;11.45;;;;;;;19.38;100.00;98704.09;5113761;28;20191;-74
2021/07/25 01:03:13;;;;;;;15.75;11.93;;;;;;;19.55;100.00;98703.06;5114036;28;20240;-73
2021/07/25 01:05:50;;;;;;;12.20;11.00;;;;;;;19.48;100.00;98696.59;5114250;28;20217;-73
2021/07/25 01:08:24;;;;;;;12.25;10.95;;;;;;;19.49;100.00;98694.69;5114061;28;20629;-74
2021/07/25 01:10:53;;;;;;;13.48;10.50;;;;;;;19.54;100.00;98689.59;5114215;28;20190;-74
2021/07/25 01:13:24;;;;;;;12.27;10.07;;;;;;;19.60;100.00;98688.91;5114050;28;20554;-74
2021/07/25 01:15:52;;;;;;;11.95;10.35;;;;;;;19.50;100.00;98678.16;5114036;28;20212;-74
2021/07/25 01:18:20;;;;;;;12.90;10.95;;;;;;;19.63;100.00;98683.13;5113588;28;20205;-75
2021/07/25 01:20:48;;;;;;;13.48;10.25;;;;;;;19.57;100.00;98689.25;5113909;28;20192;-73
2021/07/25 01:23:15;;;;;;;11.88;10.55;;;;;;;19.52;100.00;98691.66;5113294;28;20246;-73
2021/07/25 01:25:43;;;;;;;12.07;10.80;;;;;;;19.60;100.00;98688.91;5113433;28;20181;-74
2021/07/25 01:28:17;;;;;;;13.05;10.80;;;;;;;19.75;100.00;98691.88;5113690;28;20238;-74
2021/07/25 01:30:51;;;;;;;15.60;10.75;;;;;;;19.79;100.00;98685.06;5113491;28;20194;-74
2021/07/25 01:33:21;;;;;;;13.77;11.57;;;;;;;19.60;100.00;98688.91;5114323;28;20211;-73
2021/07/25 01:35:50;;;;;;;14.32;10.98;;;;;;;19.73;100.00;98686.56;5118027;28;20571;-74
2021/07/25 01:38:17;;;;;;;16.25;12.23;;;;;;;19.77;100.00;98678.91;5118054;28;20669;-74
2021/07/25 01:41:00;;;;;;;14.73;12.00;;;;;;;19.71;100.00;98687.78;5117618;28;20577;-73
2021/07/25 01:43:26;;;;;;;15.10;12.00;;;;;;;19.69;100.00;98679.72;5117482;28;20661;-73
2021/07/25 01:45:53;;;;;;;13.32;11.93;;;;;;;19.73;100.00;98674.81;5117705;28;20539;-73
2021/07/25 01:48:20;;;;;;;15.35;12.55;;;;;;;19.74;100.00;98687.41;5117358;28;20301;-74
2021/07/25 01:50:46;;;;;;;14.07;11.85;;;;;;;19.66;100.00;98682.78;5117641;28;20191;-73
2021/07/25 01:53:15;;;;;;;13.85;12.07;;;;;;;19.64;100.00;98694.91;5117968;28;20644;-74
2021/07/25 01:55:42;;;;;;;15.77;12.73;;;;;;;19.61;100.00;98685.19;5117618;28;20191;-73
2021/07/25 01:58:08;;;;;;;16.48;13.93;;;;;;;19.70;100.00;98677.88;5117503;28;20660;-75
2021/07/25 02:00:35;;;;;;;19.08;13.43;;;;;;;19.66;100.00;98690.97;5117780;28;20193;-73
2021/07/25 02:03:02;;;;;;;16.27;12.45;;;;;;;19.74;100.00;98684.69;5117606;28;20213;-74
2021/07/25 02:05:28;;;;;;;16.58;12.98;;;;;;;19.63;100.00;98694.06;5117622;28;20202;-74
2021/07/25 02:07:55;;;;;;;15.88;12.30;;;;;;;19.73;100.00;98688.44;5117402;28;20223;-74
2021/07/25 02:10:23;;;;;;;17.45;14.52;;;;;;;19.87;100.00;98681.44;5117620;28;20218;-74
2021/07/25 02:12:51;;;;;;;17.17;13.40;;;;;;;19.57;100.00;98679.19;5117102;28;20242;-72
2021/07/25 02:15:17;;;;;;;15.55;12.70;;;;;;;19.71;100.00;98680.41;5117472;28;20187;-73
2021/07/25 02:17:47;;;;;;;15.82;12.60;;;;;;;19.66;100.00;98685.50;5117230;28;20222;-73
2021/07/25 02:20:14;;;;;;;28.10;13.27;;;;;;;19.54;100.00;98678.69;5117370;28;20186;-74
2021/07/25 02:22:41;;;;;;;34.97;13.52;;;;;;;19.42;100.00;98680.88;5117059;28;20272;-73
2021/07/25 02:25:08;;;;;;;17.23;13.25;;;;;;;19.50;100.00;98678.16;5117130;28;20260;-74
2021/07/25 02:27:36;;;;;;;34.15;14.80;;;;;;;19.54;100.00;98681.41;5116969;28;20247;-74
2021/07/25 02:30:03;;;;;;;19.40;13.15;;;;;;;19.51;100.00;98685.31;5116709;28;20539;-74
2021/07/25 02:32:29;;;;;;;16.20;13.25;;;;;;;19.41;100.00;98683.78;5116722;28;20652;-73
2021/07/25 02:34:56;;;;;;;19.98;12.93;;;;;;;19.47;100.00;98688.56;5116597;28;20194;-74
2021/07/25 02:37:23;;;;;;;20.23;13.55;;;;;;;19.47;100.00;98694.88;5116673;28;20233;-73
2021/07/25 02:39:49;;;;;;;20.25;13.50;;;;;;;19.55;100.00;98696.75;5116635;28;20297;-74
2021/07/25 02:42:16;;;;;;;15.55;13.80;;;;;;;19.38;100.00;98695.91;5116304;28;20194;-73
2021/07/25 02:44:44;;;;;;;16.63;12.75;;;;;;;19.44;100.00;98697.09;5116119;28;20628;-74
2021/07/25 02:47:10;;;;;;;17.67;13.23;;;;;;;19.32;100.00;98699.28;5115611;28;20275;-73
2021/07/25 02:49:37;;;;;;;17.65;13.13;;;;;;;19.43;100.00;98701.69;5116349;28;20235;-73
2021/07/25 02:52:04;;;;;;;18.67;14.20;;;;;;;19.52;100.00;98702.56;5116038;28;20596;-74
2021/07/25 02:54:31;;;;;;;23.02;14.15;;;;;;;19.56;100.00;98704.78;5115929;28;20240;-74
2021/07/25 02:56:57;;;;;;;16.92;13.93;;;;;;;19.70;100.00;98700.56;5116113;28;20273;-73
2021/07/25 02:59:24;;;;;;;18.95;14.20;;;;;;;19.83;100.00;98704.66;5116116;28;20195;-74
2021/07/25 03:01:52;;;;;;;21.25;13.90;;;;;;;19.89;100.00;98706.72;5115980;28;20195;-74
2021/07/25 03:04:19;;;;;;;24.58;13.48;;;;;;;19.80;100.00;98708.59;5115897;28;20699;-73
2021/07/25 03:06:45;;;;;;;17.90;14.00;;;;;;;19.94;100.00;98715.25;5116275;28;20731;-74
2021/07/25 03:09:12;;;;;;;18.17;13.75;;;;;;;20.10;100.00;98706.19;5116261;28;20677;-74
2021/07/25 03:11:39;;;;;;;18.02;13.40;;;;;;;20.12;99.06;98712.34;5115987;28;20566;-74
2021/07/25 03:14:06;;;;;;;21.95;12.30;;;;;;;20.17;99.07;98712.69;5115554;28;20191;-72
2021/07/25 03:16:33;;;;;;;14.32;12.30;;;;;;;20.21;98.30;98716.78;5116055;28;20711;-75
2021/07/25 03:19:01;;;;;;;15.57;12.13;;;;;;;20.28;96.90;98715.06;5115844;28;20205;-73
2021/07/25 03:21:27;;;;;;;18.52;12.23;;;;;;;20.31;96.70;98713.88;5116046;28;20207;-74
2021/07/25 03:23:54;;;;;;;15.10;12.10;;;;;;;20.33;96.51;98720.03;5115691;28;20206;-74
2021/07/25 03:26:20;;;;;;;15.23;12.60;;;;;;;20.28;97.45;98712.31;5115614;28;20229;-73
2021/07/25 03:28:47;;;;;;;18.02;14.35;;;;;;;20.26;96.41;98706.22;5115204;28;20194;-74
2021/07/25 03:31:13;;;;;;;16.05;13.55;;;;;;;20.24;96.10;98705.53;5115335;28;20282;-73
2021/07/25 03:33:40;;;;;;;19.25;13.77;;;;;;;20.25;95.71;98709.94;5115618;28;20251;-72
2021/07/25 03:36:08;;;;;;;22.98;14.13;;;;;;;20.29;96.34;98699.53;5115368;28;20187;-74
2021/07/25 03:38:35;;;;;;;16.80;13.98;;;;;;;20.31;96.33;98712.00;5114749;28;20221;-75
2021/07/25 03:41:02;;;;;;;17.85;14.25;;;;;;;20.44;94.78;98708.72;5115102;28;20183;-74
2021/07/25 03:43:30;;;;;;;21.23;13.63;;;;;;;20.40;94.12;98705.50;5114799;28;20655;-74
2021/07/25 03:45:58;;;;;;;22.85;13.88;;;;;;;20.41;93.37;98712.66;5115316;28;20663;-73
2021/07/25 03:48:25;;;;;;;20.38;14.25;;;;;;;20.40;92.99;98713.69;5115440;28;20273;-74
2021/07/25 03:50:53;;;;;;;19.70;15.75;;;;;;;20.42;92.78;98713.53;5115103;28;20202;-72
2021/07/25 03:53:20;;;;;;;23.67;15.93;;;;;;;20.38;93.95;98714.91;5115319;28;20214;-74
2021/07/25 03:55:48;;;;;;;19.10;13.95;;;;;;;20.45;92.78;98704.13;5115405;28;20571;-74
2021/07/25 03:58:14;;;;;;;19.90;14.95;;;;;;;20.33;93.91;98704.47;5113747;28;20230;-74
2021/07/25 04:00:41;;;;;;;18.33;14.10;;;;;;;20.32;95.77;98705.50;5114906;28;20687;-73
2021/07/25 04:03:08;;;;;;;24.45;15.63;;;;;;;20.36;95.69;98703.28;5114243;28;20273;-74
2021/07/25 04:05:34;;;;;;;19.58;15.13;;;;;;;20.32;95.86;98701.91;5115059;28;20601;-74
2021/07/25 04:08:07;;;;;;;17.98;14.15;;;;;;;20.39;94.89;98702.91;5114558;28;20187;-73
2021/07/25 04:10:39;;;;;;;17.85;14.13;;;;;;;20.39;95.60;98701.03;5114415;28;20191;-74
2021/07/25 04:13:06;;;;;;;20.48;14.90;;;;;;;20.31;96.68;98692.03;5114277;28;20197;-74
2021/07/25 04:15:32;;;;;;;21.42;15.15;;;;;;;20.33;97.79;98701.75;5114638;28;20199;-73
2021/07/25 04:17:59;;;;;;;20.08;14.57;;;;;;;20.41;95.94;98695.41;5113999;28;20236;-73
2021/07/25 04:20:25;;;;;;;21.05;15.15;;;;;;;20.48;94.88;98698.28;5114656;28;20210;-74
2021/07/25 04:22:52;;;;;;;20.05;13.88;;;;;;;20.41;94.07;98707.19;5113954;28;20695;-73
2021/07/25 04:25:19;;;;;;;18.73;13.93;;;;;;;20.40;94.36;98710.97;5113941;28;20285;-73
2021/07/25 04:27:47;;;;;;;22.23;14.63;;;;;;;20.41;93.91;98711.81;5113910;28;20543;-73
2021/07/25 04:30:15;;;;;;;21.13;13.13;;;;;;;20.50;93.16;98724.44;5113181;28;20282;-73
2021/07/25 04:32:42;;;;;;;18.65;13.90;;;;;;;20.48;93.26;98725.63;5095466;28;20218;-74
2021/07/25 04:35:11;;;;;;;16.55;12.65;;;;;;;20.37;93.46;98727.72;5113707;28;20185;-72
2021/07/25 04:37:47;;;;;;;21.02;13.65;;;;;;;20.54;92.77;98723.06;5113134;28;20245;-73
2021/07/25 04:40:15;;;;;;;15.10;11.90;;;;;;;20.59;91.84;98736.25;5113559;28;20517;-73
2021/07/25 04:42:48;;;;;;;15.82;12.48;;;;;;;20.40;91.60;98734.72;5105199;28;20438;-74
2021/07/25 04:45:16;;;;;;;16.15;11.45;;;;;;;20.13;93.35;98728.59;5113642;28;20651;-73
2021/07/25 04:47:50;;;;;;;15.57;11.70;;;;;;;20.29;93.17;98726.88;5113437;28;20274;-73
2021/07/25 04:50:18;;;;;;;15.88;12.77;;;;;;;20.44;93.39;98721.53;5113476;28;20282;-73
2021/07/25 04:52:51;;;;;;;16.93;12.00;;;;;;;20.60;91.37;98732.50;5105210;28;20212;-73
2021/07/25 04:55:22;;;;;;;21.02;17.08;;;;;;;20.70;91.74;98732.28;5113605;28;20976;-73
2021/07/25 04:58:02;;;;;;;16.23;12.52;;;;;;;20.73;92.18;98735.50;5113325;28;20202;-74
2021/07/25 05:00:31;;;;;;;21.08;14.40;;;;;;;20.71;91.65;98733.97;5113019;28;20221;-73
2021/07/25 05:03:00;;;;;;;18.50;12.10;;;;;;;20.82;89.46;98728.13;5112825;28;20190;-73
2021/07/25 05:05:28;;;;;;;20.13;12.80;;;;;;;20.91;88.87;98734.44;5107223;28;20235;-72
2021/07/25 05:07:56;;;;;;;17.90;11.43;;;;;;;20.87;88.84;98725.75;5127472;27;20194;-73
2021/07/25 05:10:24;;;;;;;14.35;11.65;;;;;;;20.98;89.48;98729.97;5116665;27;20278;-74
2021/07/25 05:12:59;;;;;;;18.23;12.70;;;;;;;20.98;88.45;98727.22;5113677;28;20202;-73
2021/07/25 05:15:31;;;;;;;17.10;11.27;;;;;;;21.09;86.70;98731.47;5106430;28;20200;-72
2021/07/25 05:18:02;;;;;;;17.35;12.13;;;;;;;21.16;86.93;98730.56;5113341;28;20684;-72
2021/07/25 05:20:35;;;;;;;13.90;10.70;;;;;;;21.26;87.20;98732.25;5113046;28;20193;-73
2021/07/25 05:23:04;;;;;;;15.10;10.83;;;;;;;21.35;85.26;98729.28;5113299;28;20438;-72
2021/07/25 05:25:32;;;;;;;17.70;12.07;;;;;;;21.45;85.07;98729.09;5113577;28;20528;-74
2021/07/25 05:28:05;;;;;;;17.93;11.40;;;;;;;21.49;85.84;98726.84;5113178;28;20425;-72
2021/07/25 05:30:33;;;;;;;15.50;10.97;;;;;;;21.43;86.68;98729.25;5109354;28;20443;-72
2021/07/25 05:32:59;;;;;;;12.77;10.47;;;;;;;21.75;85.33;98723.75;5113170;28;20469;-73
2021/07/25 05:35:26;;;;;;;14.33;10.40;;;;;;;21.50;82.83;98720.31;5105082;28;20463;-73
2021/07/25 05:37:52;;;;;;;14.83;12.00;;;;;;;21.55;83.25;98717.88;5113162;28;20516;-72
2021/07/25 05:40:19;;;;;;;12.10;10.60;;;;;;;21.36;83.58;98721.91;5112744;28;20524;-73
2021/07/25 05:42:46;;;;;;;14.47;11.03;;;;;;;21.29;85.08;98716.31;5113066;28;20435;-72
2021/07/25 05:45:14;;;;;;;13.20;11.13;;;;;;;21.53;82.94;98715.34;5112864;28;20468;-73
2021/07/25 05:47:41;;;;;;;15.50;10.77;;;;;;;21.61;82.02;98722.66;5112799;28;20433;-73
2021/07/25 05:50:09;;;;;;;13.33;10.70;;;;;;;21.64;82.13;98734.13;5112700;28;20429;-73
2021/07/25 05:52:46;;;;;;;14.10;10.57;;;;;;;21.55;82.92;98735.19;5112933;28;20788;-72
2021/07/25 05:55:13;;;;;;;11.30;10.10;;;;;;;21.71;82.24;98731.50;5112307;28;20545;-73
2021/07/25 05:57:40;;;;;;;14.80;10.30;;;;;;;21.83;82.13;98726.44;5105150;28;20520;-74
2021/07/25 06:00:07;;;;;;;15.10;10.43;;;;;;;21.82;80.63;98731.09;5113032;28;20480;-72
2021/07/25 06:02:49;;;;;;;12.40;10.50;;;;;;;21.99;80.86;98730.94;5112896;28;20460;-72
2021/07/25 06:05:16;;;;;;;12.57;10.33;;;;;;;21.90;80.37;98732.06;5113181;28;20421;-73
2021/07/25 06:07:43;;;;;;;13.30;10.27;;;;;;;21.99;80.50;98733.69;5113214;28;20456;-72
2021/07/25 06:10:10;;;;;;;12.17;10.17;;;;;;;22.13;79.47;98732.88;5113245;28;20906;-73
2021/07/25 06:12:37;;;;;;;12.17;10.63;;;;;;;22.31;79.09;98737.22;5112991;28;20421;-72
2021/07/25 06:15:05;;;;;;;11.93;10.40;;;;;;;22.49;77.44;98737.72;5112776;28;20520;-72
2021/07/25 06:17:32;;;;;;;12.00;10.47;;;;;;;22.63;77.05;98733.28;5112649;28;20530;-73
2021/07/25 06:19:59;;;;;;;12.87;10.37;;;;;;;22.59;76.92;98731.97;5112684;28;20475;-72
2021/07/25 06:22:26;;;;;;;11.73;9.63;;;;;;;22.58;76.83;98735.75;5116683;28;20788;-74
2021/07/25 06:24:53;;;;;;;13.33;9.63;;;;;;;22.26;77.66;98738.63;5116725;28;20790;-73
2021/07/25 06:27:19;;;;;;;10.73;9.20;;;;;;;22.36;77.85;98741.09;5116780;28;20503;-73
2021/07/25 06:29:46;;;;;;;14.50;10.63;;;;;;;22.35;77.74;98733.91;5116653;28;20518;-72
2021/07/25 06:32:12;;;;;;;12.47;10.33;;;;;;;22.47;77.40;98737.91;5116591;28;20445;-73
2021/07/25 06:34:39;;;;;;;11.43;9.37;;;;;;;22.64;76.95;98735.84;5116444;28;20520;-74
2021/07/25 06:37:08;;;;;;;14.10;10.63;;;;;;;22.82;75.93;98734.66;5116606;28;20429;-73
2021/07/25 06:39:34;;;;;;;13.27;10.40;;;;;;;22.85;74.66;98737.00;5116393;28;20564;-73
2021/07/25 06:42:01;;;;;;;12.70;11.30;;;;;;;22.92;73.93;98737.94;5116269;28;20447;-73
2021/07/25 06:44:27;;;;;;;13.17;11.70;;;;;;;22.81;73.67;98738.41;5116472;28;20521;-74
2021/07/25 06:46:54;;;;;;;12.00;9.27;;;;;;;23.04;74.53;98735.59;5115559;28;20480;-74
2021/07/25 06:49:20;;;;;;;10.93;9.83;;;;;;;23.18;73.81;98748.50;5116002;28;20436;-72
2021/07/25 06:51:47;;;;;;;12.33;11.13;;;;;;;23.34;72.42;98736.44;5116240;28;20963;-73
2021/07/25 06:54:15;;;;;;;12.50;10.93;;;;;;;23.63;71.51;98740.13;5116120;28;20982;-72
2021/07/25 06:56:42;;;;;;;13.63;10.73;;;;;;;23.68;70.26;98754.16;5116094;28;20943;-74
2021/07/25 06:59:08;;;;;;;11.90;10.70;;;;;;;23.92;69.72;98741.97;5115883;28;20821;-73
2021/07/25 07:01:35;;;;;;;16.17;11.30;;;;;;;24.25;68.54;98745.03;5116018;28;20475;-73
2021/07/25 07:04:01;;;;;;;13.10;11.30;;;;;;;24.18;67.51;98748.78;5115292;28;20469;-73
2021/07/25 07:06:28;;;;;;;13.50;11.00;;;;;;;24.17;68.46;98749.81;5115865;28;20452;-72
2021/07/25 07:08:55;;;;;;;13.63;10.60;;;;;;;24.01;68.64;98745.44;5115786;28;20520;-73
2021/07/25 07:11:28;;;;;;;12.13;10.93;;;;;;;23.36;70.73;98745.34;5115549;28;20469;-73
2021/07/25 07:13:55;;;;;;;22.17;15.60;;;;;;;23.38;71.08;98745.13;5115486;28;20489;-74
2021/07/25 07:16:22;;;;;;;12.70;11.00;;;;;;;23.00;71.36;98742.53;5115711;28;20930;-74
2021/07/25 07:18:48;;;;;;;13.03;11.40;;;;;;;23.43;70.94;98740.78;5115193;28;20992;-73
2021/07/25 07:21:15;;;;;;;12.60;10.80;;;;;;;23.53;70.76;98752.28;5115745;28;20429;-74
2021/07/25 07:23:42;;;;;;;12.00;10.40;;;;;;;23.40;70.29;98745.78;5115191;28;20548;-73
2021/07/25 07:26:08;;;;;;;11.40;10.20;;;;;;;23.48;69.70;98743.78;5113602;28;20771;-73
2021/07/25 07:28:37;;;;;;;11.07;9.90;;;;;;;23.37;70.62;98752.53;5114747;28;20433;-72
2021/07/25 07:31:04;;;;;;;11.90;9.97;;;;;;;23.42;70.45;98749.19;5114638;28;20441;-74
2021/07/25 07:33:30;;;;;;;14.30;10.40;;;;;;;23.11;71.91;98747.56;5114737;28;20903;-73
2021/07/25 07:35:57;;;;;;;14.60;9.97;;;;;;;23.24;71.10;98746.84;5114659;28;20421;-72
2021/07/25 07:38:23;;;;;;;13.33;10.80;;;;;;;23.67;69.55;98755.19;5115079;28;20425;-72
2021/07/25 07:40:50;;;;;;;11.47;9.63;;;;;;;23.96;68.56;98758.94;5114906;28;20445;-75
2021/07/25 07:43:18;;;;;;;10.70;9.70;;;;;;;24.44;66.63;98759.16;5114243;28;20443;-73
2021/07/25 07:45:46;;;;;;;10.00;8.90;;;;;;;24.35;65.79;98763.94;5114417;28;20550;-73
2021/07/25 07:48:13;;;;;;;10.30;9.17;;;;;;;24.55;65.18;98766.91;5114466;28;20465;-73
2021/07/25 07:50:43;;;;;;;9.87;8.87;;;;;;;24.81;63.45;98765.41;5114486;28;20434;-74
2021/07/25 07:53:09;;;;;;;11.13;8.50;;;;;;;24.74;62.58;98768.97;5114624;28;20748;-74
2021/07/25 07:55:36;;;;;;;11.67;8.30;;;;;;;25.16;61.75;98774.50;5115012;28;20439;-74
2021/07/25 07:58:03;;;;;;;9.77;8.87;;;;;;;24.96;61.96;98774.38;5114458;28;20827;-73
2021/07/25 08:00:30;;;;;;;10.60;7.67;;;;;;;25.04;62.76;98774.25;5114211;28;20504;-72
2021/07/25 08:02:58;;;;;;;9.40;7.53;;;;;;;25.47;61.82;98775.97;5114520;28;20434;-73
2021/07/25 08:05:25;;;;;;;8.63;7.37;;;;;;;25.55;60.40;98764.75;5106194;28;20468;-72
2021/07/25 08:07:51;;;;;;;7.90;7.07;;;;;;;26.02;58.95;98765.78;5114127;28;20425;-74
2021/07/25 08:10:18;;;;;;;8.47;7.27;;;;;;;26.08;58.83;98766.88;5114133;28;20440;-74
2021/07/25 08:12:44;;;;;;;9.87;8.30;;;;;;;25.90;58.92;98765.56;5113854;28;20471;-74
2021/07/25 08:15:12;;;;;;;9.57;8.60;;;;;;;26.28;57.54;98766.91;5114485;28;20433;-73
2021/07/25 08:17:39;;;;;;;7.40;6.63;;;;;;;26.06;58.05;98757.97;5113739;28;20484;-73
2021/07/25 08:20:08;;;;;;;8.03;7.33;;;;;;;25.58;58.59;98761.63;5113856;28;20476;-73
2021/07/25 08:22:35;;;;;;;8.30;7.50;;;;;;;25.50;58.58;98765.38;5113624;28;20423;-73
2021/07/25 08:25:02;;;;;;;7.97;7.03;;;;;;;25.31;59.97;98766.16;5114180;28;20447;-73
2021/07/25 08:27:28;;;;;;;10.50;7.80;;;;;;;25.95;58.07;98763.00;5113616;28;20433;-73
2021/07/25 08:29:55;;;;;;;9.13;7.00;;;;;;;25.86;56.95;98755.97;5113673;28;20483;-74
2021/07/25 08:32:22;;;;;;;8.00;7.20;;;;;;;26.36;56.08;98769.44;5114003;28;20436;-73
2021/07/25 08:34:48;;;;;;;9.13;6.97;;;;;;;26.05;55.86;98753.47;5113933;28;20991;-73
2021/07/25 08:37:16;;;;;;;7.27;6.57;;;;;;;25.84;55.89;98755.31;5113528;28;20436;-73
2021/07/25 08:39:43;;;;;;;6.97;6.27;;;;;;;25.98;55.68;98748.81;5113318;28;20958;-74
2021/07/25 08:42:12;;;;;;;8.00;6.30;;;;;;;25.92;56.20;98749.66;5113614;28;20436;-73
2021/07/25 08:44:47;;;;;;;7.87;6.97;;;;;;;25.96;55.92;98747.31;5112900;28;20440;-73
2021/07/25 08:47:37;;;;;;;8.87;6.53;;;;;;;26.16;56.20;98739.06;5107096;28;20991;-74
2021/07/25 08:50:07;;;;;;;7.40;6.67;;;;;;;26.62;54.22;98749.31;5113559;28;20788;-73
2021/07/25 08:52:37;;;;;;;8.50;6.80;;;;;;;26.70;53.63;98743.56;5113548;28;20494;-73
2021/07/25 08:55:06;;;;;;;7.50;6.47;;;;;;;26.40;55.10;98737.59;5113528;28;20433;-74
2021/07/25 08:57:35;;;;;;;7.90;6.30;;;;;;;26.79;53.41;98741.41;5113356;28;20524;-73
2021/07/25 09:00:04;;;;;;;7.03;6.20;;;;;;;26.40;54.08;98743.97;5113013;28;20537;-74
2021/07/25 09:02:32;;;;;;;6.90;6.27;;;;;;;25.79;54.76;98747.66;5113609;28;20465;-74
2021/07/25 09:05:01;;;;;;;8.07;6.53;;;;;;;25.34;56.86;98741.78;5112925;28;20821;-73
2021/07/25 09:07:29;;;;;;;7.00;6.40;;;;;;;25.80;56.33;98748.50;5113643;28;20891;-74
2021/07/25 09:10:00;;;;;;;6.57;5.90;;;;;;;26.21;54.73;98739.31;5113187;28;20524;-72
2021/07/25 09:12:28;;;;;;;8.10;5.70;;;;;;;26.31;54.55;98747.16;5104783;28;20433;-73
2021/07/25 09:14:56;;;;;;;8.00;6.47;;;;;;;26.57;54.29;98743.56;5113378;28;20443;-73
2021/07/25 09:17:24;;;;;;;6.63;5.80;;;;;;;26.51;54.09;98750.78;5113219;28;20448;-74
2021/07/25 09:20:10;;;;;;;8.60;6.33;;;;;;;26.96;53.01;98750.97;5113084;28;20467;-74
2021/07/25 09:22:38;;;;;;;6.50;5.50;;;;;;;27.63;51.93;98759.91;5104995;28;20433;-74
2021/07/25 09:25:07;;;;;;;7.17;5.50;;;;;;;27.84;50.68;98755.16;5113285;28;20954;-73
2021/07/25 09:27:33;;;;;;;8.33;5.50;;;;;;;28.05;49.97;98757.56;5112976;28;20899;-73
2021/07/25 09:30:16;;;;;;;5.83;5.23;;;;;;;28.00;49.95;98757.38;5113321;28;20432;-75
2021/07/25 09:32:43;;;;;;;8.40;5.20;;;;;;;28.51;48.79;98757.47;5112879;28;20547;-73
2021/07/25 09:35:23;;;;;;;7.10;5.80;;;;;;;28.59;48.88;98755.28;5113354;28;21206;-72
2021/07/25 09:37:51;;;;;;;6.20;5.60;;;;;;;29.17;47.13;98764.31;5112497;28;20440;-74
2021/07/25 09:40:25;;;;;;;5.70;5.20;;;;;;;29.26;46.29;98755.50;5112820;28;20513;-73
2021/07/25 09:43:08;;;;;;;6.10;5.20;;;;;;;29.45;46.51;98761.88;5113102;28;20524;-74
2021/07/25 09:45:54;;;;;;;7.43;5.67;;;;;;;29.09;46.29;98759.94;5113163;28;20925;-73
2021/07/25 09:48:22;;;;;;;6.50;5.43;;;;;;;28.41;48.56;98764.34;5112682;28;20506;-74
2021/07/25 09:50:50;;;;;;;6.73;4.90;;;;;;;28.74;47.95;98767.91;5112016;28;20431;-73
2021/07/25 09:53:18;;;;;;;5.50;5.00;;;;;;;28.74;47.74;98760.47;5112349;28;20819;-75
2021/07/25 09:55:46;;;;;;;5.47;4.97;;;;;;;28.57;48.34;98765.72;5115554;28;20786;-74
2021/07/25 09:58:13;;;;;;;5.63;5.13;;;;;;;29.26;46.83;98757.38;5108068;28;20435;-74
2021/07/25 10:00:41;;;;;;;5.70;5.20;;;;;;;29.46;46.19;98754.38;5116211;28;20464;-74
2021/07/25 10:03:24;;;;;;;6.77;4.90;;;;;;;29.33;46.45;98758.19;5115723;28;20468;-73
2021/07/25 10:05:51;;;;;;;5.10;4.30;;;;;;;29.00;47.22;98753.81;5116093;28;20433;-74
2021/07/25 10:08:20;;;;;;;5.70;5.20;;;;;;;28.87;47.21;98746.47;5115968;28;20440;-73
2021/07/25 10:10:49;;;;;;;5.50;5.00;;;;;;;29.33;45.87;98740.69;5115827;28;20519;-73
2021/07/25 10:13:17;;;;;;;6.23;5.30;;;;;;;29.40;45.61;98741.47;5116518;28;20985;-73
2021/07/25 10:15:52;;;;;;;5.30;4.60;;;;;;;29.19;45.13;98742.75;5116429;28;20528;-73
2021/07/25 10:18:21;;;;;;;5.90;4.80;;;;;;;28.83;46.49;98739.72;5116457;28;20906;-73
2021/07/25 10:20:48;;;;;;;4.40;4.10;;;;;;;28.66;46.48;98735.84;5116098;28;20472;-73
2021/07/25 10:23:17;;;;;;;5.73;5.20;;;;;;;28.40;47.21;98740.50;5116267;28;20447;-74
2021/07/25 10:25:49;;;;;;;6.70;4.63;;;;;;;27.75;48.59;98746.22;5116316;28;20429;-73
2021/07/25 10:28:19;;;;;;;6.57;4.73;;;;;;;27.99;48.61;98735.47;5116398;28;20832;-72
2021/07/25 10:30:46;;;;;;;4.97;4.57;;;;;;;28.45;47.51;98718.53;5107881;28;20780;-73
2021/07/25 10:33:15;;;;;;;7.17;5.00;;;;;;;29.09;46.60;98719.22;5116126;28;20937;-73
2021/07/25 10:35:43;;;;;;;30.57;5.70;;;;;;;29.48;45.38;98710.63;5114485;28;21296;-76
2021/07/25 10:38:10;;;;;;;4.93;4.43;;;;;;;29.49;44.86;98715.13;5114874;28;20468;-77
2021/07/25 10:40:37;;;;;;;5.10;4.37;;;;;;;29.60;44.75;98710.69;5114073;28;20471;-77
2021/07/25 10:43:06;;;;;;;5.10;4.60;;;;;;;29.89;44.27;98723.75;5113771;28;20437;-74
2021/07/25 10:45:35;;;;;;;4.63;3.90;;;;;;;28.71;46.52;98716.59;5114089;28;20441;-76
2021/07/25 10:48:15;;;;;;;10.23;3.57;;;;;;;28.75;46.66;98711.47;5113613;28;20433;-76
2021/07/25 10:50:42;;;;;;;4.50;3.80;;;;;;;28.76;46.79;98710.38;5114136;28;20846;-75
2021/07/25 10:53:08;;;;;;;12.67;4.40;;;;;;;29.10;46.33;98708.97;5114008;28;20986;-76
2021/07/25 10:55:48;;;;;;;4.13;3.67;;;;;;;29.12;45.56;98706.81;5114116;28;20512;-75
2021/07/25 10:58:16;;;;;;;5.33;3.70;;;;;;;29.17;45.78;98698.66;5106210;28;20517;-77
2021/07/25 11:00:46;;;;;;;4.97;3.50;;;;;;;29.73;44.09;98703.06;5113301;28;20460;-77
2021/07/25 11:03:45;;;;;;;4.30;3.77;;;;;;;29.64;44.12;98706.38;5113655;28;20465;-75
2021/07/25 11:06:19;;;;;;;4.70;3.53;;;;;;;29.76;44.26;98704.53;5103945;28;20848;-75
2021/07/25 11:08:56;;;;;;;3.60;3.30;;;;;;;30.20;42.24;98705.13;5113343;28;20425;-77
2021/07/25 11:11:56;;;;;;;3.83;3.07;;;;;;;29.80;42.07;98696.56;5113631;28;20825;-76
2021/07/25 11:15:06;;;;;;;3.97;2.80;;;;;;;29.72;42.12;98692.22;5112891;28;20429;-74
2021/07/25 11:17:54;;;;;;;4.63;3.80;;;;;;;29.98;42.78;98693.72;5113023;28;20483;-77
2021/07/25 11:20:42;;;;;;;3.40;2.63;;;;;;;29.12;43.52;98692.97;5113350;28;20469;-77
2021/07/25 11:23:13;;;;;;;5.17;3.47;;;;;;;29.37;43.44;98683.69;5113812;28;20468;-74
2021/07/25 11:25:40;;;;;;;3.83;3.03;;;;;;;29.14;44.16;98685.25;5113243;28;20429;-76
2021/07/25 11:28:09;;;;;;;5.00;3.70;;;;;;;29.36;44.68;98677.31;5113629;28;20429;-75